Time;durP1;ratioP1;P1;durP2;ratioP2;P2;SDS_P1;SDS_P2;PMS_P1;PMS_P2;Temp;Humidity;BMP_temperature;BMP_pressure;BME280_temperature;BME280_humidity;BME280_pressure;Samples;Min_cycle;Max_cycle;Signal;HPM_P1;HPM_P2
2023/09/13 00:01:39;;;;;;;9.77;3.75;;;;;;;;;;5039835;28;20294;-58
2023/09/13 00:04:04;;;;;;;5.95;3.45;;;;;;;;;;5034040;28;20048;-57
2023/09/13 00:06:30;;;;;;;8.10;3.50;;;;;;;;;;5037831;28;20116;-57
2023/09/13 00:08:55;;;;;;;6.60;3.30;;;;;;;;;;5043890;28;20043;-57
2023/09/13 00:11:20;;;;;;;5.80;3.07;;;;;;;;;;5026552;28;20851;-57
2023/09/13 00:13:45;;;;;;;6.43;3.67;;;;;;;;;;5044904;28;20421;-57
2023/09/13 00:16:11;;;;;;;6.85;3.25;;;;;;;;;;5044967;28;20288;-57
2023/09/13 00:18:36;;;;;;;6.07;3.55;;;;;;;;;;5038926;28;20071;-57
2023/09/13 00:21:01;;;;;;;7.83;3.20;;;;;;;;;;5043585;28;20691;-57
2023/09/13 00:23:26;;;;;;;6.15;3.47;;;;;;;;;;5045176;28;20383;-57
2023/09/13 00:25:52;;;;;;;9.80;3.35;;;;;;;;;;5043557;28;20524;-59
2023/09/13 00:28:17;;;;;;;4.77;3.03;;;;;;;;;;5044586;28;20044;-57
2023/09/13 00:30:42;;;;;;;6.67;3.30;;;;;;;;;;5044853;28;20866;-57
2023/09/13 00:33:07;;;;;;;7.97;3.40;;;;;;;;;;5043789;28;20288;-57
2023/09/13 00:35:33;;;;;;;5.63;2.90;;;;;;;;;;5043962;28;20284;-56
2023/09/13 00:37:58;;;;;;;5.77;2.80;;;;;;;;;;5037197;28;20280;-56
2023/09/13 00:40:23;;;;;;;5.93;2.97;;;;;;;;;;5038504;28;20388;-56
2023/09/13 00:42:48;;;;;;;5.43;3.20;;;;;;;;;;5043086;28;20820;-57
2023/09/13 00:45:14;;;;;;;6.45;3.28;;;;;;;;;;5043104;28;20505;-58
2023/09/13 00:47:42;;;;;;;6.07;3.53;;;;;;;;;;5042610;28;20214;-58
2023/09/13 00:50:08;;;;;;;6.35;3.10;;;;;;;;;;5042972;28;20283;-57
2023/09/13 00:52:33;;;;;;;5.07;3.00;;;;;;;;;;5041123;28;20072;-56
2023/09/13 00:54:58;;;;;;;4.93;3.03;;;;;;;;;;5034343;28;20849;-56
2023/09/13 00:57:24;;;;;;;6.30;2.80;;;;;;;;;;5036032;28;21152;-58
2023/09/13 00:59:49;;;;;;;5.03;3.07;;;;;;;;;;5044528;28;21299;-58
2023/09/13 01:02:14;;;;;;;8.03;3.20;;;;;;;;;;5038855;28;20394;-58
2023/09/13 01:04:39;;;;;;;9.10;3.27;;;;;;;;;;5044246;28;20275;-58
2023/09/13 01:07:08;;;;;;;5.13;2.80;;;;;;;;;;5040658;28;20315;-58
2023/09/13 01:09:33;;;;;;;7.30;3.15;;;;;;;;;;5034920;28;20037;-57
2023/09/13 01:11:59;;;;;;;6.28;2.90;;;;;;;;;;5043901;28;20036;-58
2023/09/13 01:14:24;;;;;;;6.82;3.13;;;;;;;;;;5043293;28;20083;-57
2023/09/13 01:17:10;;;;;;;4.90;3.23;;;;;;;;;;5031660;28;20647;-58
2023/09/13 01:19:45;;;;;;;7.22;3.30;;;;;;;;;;5040287;28;20378;-57
2023/09/13 01:22:13;;;;;;;7.30;3.15;;;;;;;;;;5030406;28;20045;-58
2023/09/13 01:24:41;;;;;;;4.72;2.63;;;;;;;;;;5042566;28;20033;-58
2023/09/13 01:27:09;;;;;;;7.00;2.97;;;;;;;;;;5039895;28;20045;-57
2023/09/13 01:29:34;;;;;;;5.40;2.75;;;;;;;;;;5040237;28;20107;-57
2023/09/13 01:32:00;;;;;;;5.63;2.90;;;;;;;;;;5043611;28;20037;-57
2023/09/13 01:34:25;;;;;;;6.97;2.90;;;;;;;;;;5040445;28;20286;-58
2023/09/13 01:36:50;;;;;;;7.37;3.30;;;;;;;;;;5042418;28;20283;-57
2023/09/13 01:39:15;;;;;;;5.20;2.75;;;;;;;;;;5037284;28;20052;-57
2023/09/13 01:41:44;;;;;;;5.73;3.23;;;;;;;;;;5042225;28;20116;-57
2023/09/13 01:44:10;;;;;;;5.85;2.92;;;;;;;;;;5022139;28;20304;-57
2023/09/13 01:46:35;;;;;;;4.00;2.67;;;;;;;;;;5042183;28;20784;-57
2023/09/13 01:49:01;;;;;;;4.72;2.85;;;;;;;;;;5041014;28;20451;-57
2023/09/13 01:51:26;;;;;;;5.57;3.00;;;;;;;;;;5043335;28;20049;-57
2023/09/13 01:53:51;;;;;;;4.97;2.90;;;;;;;;;;5035915;28;20409;-57
2023/09/13 01:56:21;;;;;;;5.60;2.83;;;;;;;;;;5042717;28;20025;-57
2023/09/13 01:58:46;;;;;;;7.13;2.97;;;;;;;;;;5040423;28;20029;-57
2023/09/13 02:01:11;;;;;;;5.03;2.67;;;;;;;;;;5042336;28;20033;-57
2023/09/13 02:03:36;;;;;;;5.47;3.67;;;;;;;;;;5035101;28;20505;-58
2023/09/13 02:06:02;;;;;;;5.70;3.00;;;;;;;;;;5041774;28;20786;-57
2023/09/13 02:08:27;;;;;;;3.78;2.67;;;;;;;;;;5037945;28;20771;-57
2023/09/13 02:10:52;;;;;;;6.53;3.42;;;;;;;;;;5041080;28;20117;-56
2023/09/13 02:13:18;;;;;;;5.43;2.93;;;;;;;;;;5043084;28;20036;-56
2023/09/13 02:15:43;;;;;;;5.93;2.73;;;;;;;;;;5043429;28;20037;-58
2023/09/13 02:18:08;;;;;;;7.83;3.10;;;;;;;;;;5036590;28;20303;-57
2023/09/13 02:20:33;;;;;;;5.75;3.28;;;;;;;;;;5030564;28;20037;-55
2023/09/13 02:22:59;;;;;;;4.67;3.10;;;;;;;;;;5035280;28;20127;-56
2023/09/13 02:25:24;;;;;;;6.77;3.33;;;;;;;;;;5042099;28;20873;-58
2023/09/13 02:27:49;;;;;;;5.50;3.00;;;;;;;;;;5038875;28;20784;-56
2023/09/13 02:30:14;;;;;;;6.27;2.87;;;;;;;;;;5038095;28;20043;-57
2023/09/13 02:32:40;;;;;;;5.35;3.22;;;;;;;;;;5041620;28;20283;-56
2023/09/13 02:35:06;;;;;;;5.07;2.92;;;;;;;;;;5041550;28;20029;-56
2023/09/13 02:37:31;;;;;;;5.63;3.00;;;;;;;;;;5042132;28;20083;-56
2023/09/13 02:39:58;;;;;;;6.20;3.27;;;;;;;;;;5039767;28;20060;-56
2023/09/13 02:42:23;;;;;;;5.05;3.05;;;;;;;;;;5041357;28;20326;-56
2023/09/13 02:44:48;;;;;;;5.10;3.28;;;;;;;;;;5040037;28;20033;-56
2023/09/13 02:47:13;;;;;;;5.33;2.73;;;;;;;;;;5042547;28;20120;-56
2023/09/13 02:49:39;;;;;;;6.67;3.33;;;;;;;;;;5036199;28;20409;-56
2023/09/13 02:52:04;;;;;;;6.43;3.20;;;;;;;;;;5042857;28;20692;-58
2023/09/13 02:54:29;;;;;;;4.55;2.95;;;;;;;;;;5041291;28;20044;-57
2023/09/13 02:56:55;;;;;;;6.67;3.20;;;;;;;;;;5043342;28;20124;-57
2023/09/13 02:59:20;;;;;;;5.28;3.15;;;;;;;;;;5036122;28;20326;-58
2023/09/13 03:01:45;;;;;;;5.93;3.15;;;;;;;;;;5043009;28;20033;-57
2023/09/13 03:04:11;;;;;;;5.17;3.27;;;;;;;;;;5042089;28;20045;-59
2023/09/13 03:06:37;;;;;;;4.75;2.85;;;;;;;;;;5033529;28;20394;-57
2023/09/13 03:09:03;;;;;;;5.03;2.80;;;;;;;;;;5031202;28;20021;-57
2023/09/13 03:11:28;;;;;;;5.05;2.92;;;;;;;;;;5041424;28;20045;-57
2023/09/13 03:13:53;;;;;;;4.23;3.10;;;;;;;;;;5037639;28;20025;-58
2023/09/13 03:16:21;;;;;;;7.73;3.47;;;;;;;;;;5035026;28;20660;-56
2023/09/13 03:18:48;;;;;;;6.60;3.15;;;;;;;;;;5038016;28;20362;-56
2023/09/13 03:21:13;;;;;;;5.75;3.15;;;;;;;;;;5024916;28;20140;-57
2023/09/13 03:23:41;;;;;;;7.38;2.88;;;;;;;;;;5045096;28;20128;-57
2023/09/13 03:26:13;;;;;;;6.25;2.80;;;;;;;;;;5044624;28;20124;-56
2023/09/13 03:28:38;;;;;;;4.63;2.60;;;;;;;;;;5042937;28;20025;-56
2023/09/13 03:31:08;;;;;;;6.13;2.67;;;;;;;;;;5042735;28;20029;-56
2023/09/13 03:33:33;;;;;;;6.93;2.77;;;;;;;;;;5040604;28;20307;-57
2023/09/13 03:35:58;;;;;;;5.43;2.80;;;;;;;;;;5028715;28;20319;-57
2023/09/13 03:38:23;;;;;;;5.77;2.77;;;;;;;;;;5037591;28;20288;-57
2023/09/13 03:40:48;;;;;;;7.67;3.20;;;;;;;;;;5042437;28;20671;-57
2023/09/13 03:43:14;;;;;;;5.57;2.67;;;;;;;;;;5042988;28;20279;-57
2023/09/13 03:45:39;;;;;;;7.67;3.07;;;;;;;;;;5038053;28;20383;-58
2023/09/13 03:48:04;;;;;;;6.75;3.05;;;;;;;;;;5045271;28;20318;-57
2023/09/13 03:50:32;;;;;;;4.72;2.90;;;;;;;;;;5045560;28;20037;-58
2023/09/13 03:52:57;;;;;;;5.93;3.20;;;;;;;;;;5044515;28;20056;-57
2023/09/13 03:55:22;;;;;;;5.03;2.90;;;;;;;;;;5027449;28;20060;-57
2023/09/13 03:57:48;;;;;;;5.20;3.17;;;;;;;;;;5045167;28;20068;-57
2023/09/13 04:00:15;;;;;;;7.32;3.20;;;;;;;;;;5037575;28;20485;-58
2023/09/13 04:02:40;;;;;;;5.25;2.65;;;;;;;;;;5038250;28;20106;-58
2023/09/13 04:05:06;;;;;;;5.50;2.77;;;;;;;;;;5043550;28;20509;-58
2023/09/13 04:07:31;;;;;;;6.95;3.50;;;;;;;;;;5024780;28;20767;-56
2023/09/13 04:09:56;;;;;;;5.97;3.50;;;;;;;;;;5043545;28;20875;-57
2023/09/13 04:12:22;;;;;;;6.25;3.08;;;;;;;;;;5045590;28;20033;-57
2023/09/13 04:14:47;;;;;;;6.77;3.43;;;;;;;;;;5043334;28;20551;-60
2023/09/13 04:17:12;;;;;;;4.63;2.75;;;;;;;;;;5043615;28;20604;-58
2023/09/13 04:19:37;;;;;;;5.83;2.67;;;;;;;;;;5018782;28;20033;-58
2023/09/13 04:22:02;;;;;;;3.40;2.37;;;;;;;;;;5044478;28;20283;-58
2023/09/13 04:24:28;;;;;;;4.70;3.03;;;;;;;;;;5045314;28;20095;-58
2023/09/13 04:26:53;;;;;;;6.90;3.35;;;;;;;;;;5044927;28;20029;-57
2023/09/13 04:29:18;;;;;;;4.55;2.85;;;;;;;;;;5037559;28;20463;-58
2023/09/13 04:31:43;;;;;;;7.28;3.05;;;;;;;;;;5043740;28;20037;-58
2023/09/13 04:34:09;;;;;;;7.80;3.30;;;;;;;;;;5044099;28;20179;-57
2023/09/13 04:36:35;;;;;;;7.47;3.10;;;;;;;;;;5044612;28;20382;-58
2023/09/13 04:39:00;;;;;;;7.72;3.63;;;;;;;;;;5042135;28;20272;-57
2023/09/13 04:41:26;;;;;;;7.47;3.20;;;;;;;;;;5040939;28;20060;-57
2023/09/13 04:43:51;;;;;;;5.68;3.67;;;;;;;;;;5043018;28;20101;-58
2023/09/13 04:46:16;;;;;;;8.27;3.20;;;;;;;;;;5044706;28;20029;-57
2023/09/13 04:48:41;;;;;;;5.55;3.30;;;;;;;;;;5042143;28;20349;-58
2023/09/13 04:51:08;;;;;;;6.83;3.77;;;;;;;;;;5043147;28;20059;-59
2023/09/13 04:53:33;;;;;;;6.53;3.33;;;;;;;;;;5026546;28;20278;-57
2023/09/13 04:56:00;;;;;;;7.68;3.35;;;;;;;;;;5044204;28;20032;-57
2023/09/13 04:58:25;;;;;;;7.70;3.47;;;;;;;;;;5044826;28;20116;-58
2023/09/13 05:00:52;;;;;;;6.53;3.50;;;;;;;;;;5044310;28;20450;-58
2023/09/13 05:03:17;;;;;;;6.90;3.67;;;;;;;;;;5016540;28;20377;-57
2023/09/13 05:05:43;;;;;;;7.45;3.78;;;;;;;;;;5038092;28;20045;-57
2023/09/13 05:08:08;;;;;;;6.63;3.70;;;;;;;;;;5044331;28;20051;-57
2023/09/13 05:10:34;;;;;;;7.43;3.50;;;;;;;;;;5041248;28;20291;-57
2023/09/13 05:13:00;;;;;;;8.05;3.70;;;;;;;;;;5042643;28;20286;-58
2023/09/13 05:15:25;;;;;;;7.40;3.80;;;;;;;;;;5043762;28;20043;-58
2023/09/13 05:17:50;;;;;;;8.80;3.40;;;;;;;;;;5043384;28;20041;-58
2023/09/13 05:20:15;;;;;;;8.97;3.67;;;;;;;;;;5034222;28;20548;-58
2023/09/13 05:22:41;;;;;;;7.77;4.33;;;;;;;;;;5043362;28;20338;-57
2023/09/13 05:25:07;;;;;;;8.10;3.70;;;;;;;;;;5043094;28;20287;-59
2023/09/13 05:27:32;;;;;;;8.80;3.90;;;;;;;;;;5040865;28;20110;-57
2023/09/13 05:29:57;;;;;;;7.63;4.40;;;;;;;;;;5040552;28;20025;-55
2023/09/13 05:32:22;;;;;;;8.20;3.97;;;;;;;;;;5042298;28;20287;-57
2023/09/13 05:34:48;;;;;;;7.10;3.93;;;;;;;;;;5042847;28;20294;-57
2023/09/13 05:37:13;;;;;;;8.13;4.28;;;;;;;;;;5043672;28;20104;-57
2023/09/13 05:39:38;;;;;;;10.67;4.73;;;;;;;;;;5041896;28;20104;-57
2023/09/13 05:42:04;;;;;;;6.45;4.20;;;;;;;;;;5041596;28;20303;-58
2023/09/13 05:44:30;;;;;;;8.02;4.30;;;;;;;;;;5042678;28;20059;-57
2023/09/13 05:46:56;;;;;;;7.90;4.72;;;;;;;;;;5042867;28;20044;-57
2023/09/13 05:49:21;;;;;;;7.10;4.35;;;;;;;;;;5036038;28;20021;-57
2023/09/13 05:51:46;;;;;;;10.07;4.93;;;;;;;;;;5040136;28;20559;-59
2023/09/13 05:54:11;;;;;;;10.40;4.72;;;;;;;;;;5048467;28;20502;-56
2023/09/13 05:56:38;;;;;;;9.37;4.73;;;;;;;;;;5045355;28;20067;-57
2023/09/13 05:59:04;;;;;;;8.25;4.53;;;;;;;;;;5037848;28;20330;-56
2023/09/13 06:01:30;;;;;;;9.43;4.93;;;;;;;;;;5029322;28;20540;-57
2023/09/13 06:03:55;;;;;;;7.95;4.75;;;;;;;;;;5026658;28;20517;-57
2023/09/13 06:06:20;;;;;;;8.57;5.00;;;;;;;;;;5028568;28;20080;-57
2023/09/13 06:08:46;;;;;;;8.82;4.72;;;;;;;;;;5029326;28;20810;-57
2023/09/13 06:11:11;;;;;;;11.38;5.22;;;;;;;;;;5027897;28;20076;-57
2023/09/13 06:13:36;;;;;;;9.23;5.13;;;;;;;;;;5027265;28;20076;-57
2023/09/13 06:16:02;;;;;;;8.60;5.10;;;;;;;;;;5028610;28;20053;-59
2023/09/13 06:18:28;;;;;;;10.10;5.40;;;;;;;;;;5032312;28;20815;-57
2023/09/13 06:20:54;;;;;;;9.75;4.85;;;;;;;;;;5026889;28;20130;-58
2023/09/13 06:23:33;;;;;;;11.93;5.07;;;;;;;;;;5028659;28;20537;-57
2023/09/13 06:25:58;;;;;;;8.07;4.90;;;;;;;;;;5027386;28;20040;-57
2023/09/13 06:28:23;;;;;;;8.68;4.63;;;;;;;;;;5029532;28;20057;-56
2023/09/13 06:30:48;;;;;;;10.70;4.87;;;;;;;;;;5028679;28;20656;-57
2023/09/13 06:33:14;;;;;;;7.50;4.60;;;;;;;;;;5025653;28;20679;-58
2023/09/13 06:35:39;;;;;;;9.60;4.28;;;;;;;;;;5028443;28;20037;-59
2023/09/13 06:38:05;;;;;;;9.00;4.75;;;;;;;;;;5027529;28;20060;-57
2023/09/13 06:40:30;;;;;;;9.48;4.32;;;;;;;;;;5028141;28;20040;-58
2023/09/13 06:42:55;;;;;;;9.63;4.20;;;;;;;;;;5028625;28;20115;-58
2023/09/13 06:45:20;;;;;;;7.97;4.33;;;;;;;;;;5026939;28;20289;-59
2023/09/13 06:47:46;;;;;;;9.52;4.40;;;;;;;;;;5027750;28;20298;-59
2023/09/13 06:50:12;;;;;;;8.82;4.32;;;;;;;;;;5026801;28;20098;-58
2023/09/13 06:52:37;;;;;;;7.88;4.32;;;;;;;;;;5026744;28;20043;-57
2023/09/13 06:55:04;;;;;;;8.00;4.27;;;;;;;;;;5029148;28;20073;-57
2023/09/13 06:57:29;;;;;;;9.93;4.00;;;;;;;;;;5030375;28;20042;-56
2023/09/13 06:59:55;;;;;;;8.10;4.30;;;;;;;;;;5027194;28;20029;-57
2023/09/13 07:02:20;;;;;;;8.17;3.53;;;;;;;;;;5027172;28;20958;-56
2023/09/13 07:04:45;;;;;;;6.87;3.50;;;;;;;;;;5026398;28;20741;-58
2023/09/13 07:07:11;;;;;;;6.40;3.50;;;;;;;;;;5026216;28;20651;-56
2023/09/13 07:09:37;;;;;;;5.88;3.63;;;;;;;;;;5024562;28;21126;-58
2023/09/13 07:12:02;;;;;;;7.07;3.55;;;;;;;;;;5026645;28;20040;-58
2023/09/13 07:14:28;;;;;;;6.28;3.22;;;;;;;;;;5031052;28;20520;-57
2023/09/13 07:16:53;;;;;;;7.73;3.27;;;;;;;;;;5032061;28;20098;-57
2023/09/13 07:19:18;;;;;;;7.27;3.40;;;;;;;;;;5029768;28;20361;-58
2023/09/13 07:21:43;;;;;;;7.55;3.15;;;;;;;;;;5029919;28;20386;-58
2023/09/13 07:24:09;;;;;;;7.70;3.40;;;;;;;;;;5036130;28;20132;-57
2023/09/13 07:26:35;;;;;;;8.40;3.28;;;;;;;;;;5032216;28;20047;-58
2023/09/13 07:29:00;;;;;;;7.20;3.43;;;;;;;;;;5030458;28;21323;-60
2023/09/13 07:31:26;;;;;;;6.15;3.30;;;;;;;;;;5034593;28;20295;-62
2023/09/13 07:33:51;;;;;;;6.88;3.00;;;;;;;;;;5031311;28;20072;-58
2023/09/13 07:36:17;;;;;;;5.40;3.27;;;;;;;;;;5033950;28;20500;-58
2023/09/13 07:38:42;;;;;;;6.75;3.20;;;;;;;;;;5029119;28;21022;-58
2023/09/13 07:41:07;;;;;;;6.10;3.08;;;;;;;;;;5029670;28;20051;-58
2023/09/13 07:43:33;;;;;;;6.67;3.43;;;;;;;;;;5029840;28;20045;-57
2023/09/13 07:45:58;;;;;;;6.63;3.30;;;;;;;;;;5033918;28;20292;-58
2023/09/13 07:48:26;;;;;;;6.05;2.80;;;;;;;;;;5030443;28;20306;-57
2023/09/13 07:50:51;;;;;;;7.65;3.25;;;;;;;;;;5028541;28;20128;-59
2023/09/13 07:53:17;;;;;;;5.53;3.10;;;;;;;;;;5030287;28;20419;-58
2023/09/13 07:55:42;;;;;;;7.10;3.30;;;;;;;;;;5034182;28;20131;-57
2023/09/13 07:58:07;;;;;;;6.50;3.20;;;;;;;;;;5029090;28;20354;-58
2023/09/13 08:00:33;;;;;;;5.97;3.28;;;;;;;;;;5029476;28;20299;-57
2023/09/13 08:02:58;;;;;;;7.45;3.40;;;;;;;;;;5030296;28;20045;-59
2023/09/13 08:05:23;;;;;;;5.53;3.22;;;;;;;;;;5030609;28;20044;-57
2023/09/13 08:07:49;;;;;;;8.63;3.45;;;;;;;;;;5030934;28;20577;-57
2023/09/13 08:10:14;;;;;;;5.78;3.15;;;;;;;;;;5030526;28;20322;-58
2023/09/13 08:12:39;;;;;;;6.53;3.05;;;;;;;;;;5030752;28;20029;-57
2023/09/13 08:15:05;;;;;;;6.05;3.53;;;;;;;;;;5030822;28;20074;-57
2023/09/13 08:17:31;;;;;;;7.72;3.80;;;;;;;;;;5031304;28;20025;-57
2023/09/13 08:19:56;;;;;;;7.63;3.50;;;;;;;;;;5034851;28;20036;-57
2023/09/13 08:22:22;;;;;;;6.00;3.65;;;;;;;;;;5031612;28;20021;-57
2023/09/13 08:24:47;;;;;;;6.97;3.30;;;;;;;;;;5029015;28;20710;-56
2023/09/13 08:27:12;;;;;;;5.83;3.47;;;;;;;;;;5032646;28;20604;-57
2023/09/13 08:29:38;;;;;;;7.57;3.47;;;;;;;;;;5028833;28;20356;-58
2023/09/13 08:32:03;;;;;;;9.38;3.53;;;;;;;;;;5030511;28;20322;-58
2023/09/13 08:34:29;;;;;;;9.93;3.97;;;;;;;;;;5031061;28;20560;-57
2023/09/13 08:36:55;;;;;;;9.52;3.40;;;;;;;;;;5031193;28;20151;-56
2023/09/13 08:39:21;;;;;;;9.13;3.45;;;;;;;;;;5029871;28;20013;-57
2023/09/13 08:41:50;;;;;;;6.35;3.30;;;;;;;;;;5029976;28;20033;-57
2023/09/13 08:44:18;;;;;;;6.68;3.22;;;;;;;;;;5033315;28;20064;-58
2023/09/13 08:46:43;;;;;;;8.40;3.35;;;;;;;;;;5026846;28;20029;-57
2023/09/13 08:49:08;;;;;;;7.22;3.45;;;;;;;;;;5029929;28;20025;-57
2023/09/13 08:51:35;;;;;;;9.67;3.50;;;;;;;;;;5030147;28;20022;-57
2023/09/13 08:54:01;;;;;;;6.53;3.45;;;;;;;;;;5028936;28;20275;-58
2023/09/13 08:56:27;;;;;;;4.97;3.10;;;;;;;;;;5032925;28;20057;-57
2023/09/13 08:58:52;;;;;;;8.50;3.53;;;;;;;;;;5028236;28;20055;-57
2023/09/13 09:01:17;;;;;;;7.63;3.65;;;;;;;;;;5033213;28;21479;-57
2023/09/13 09:03:43;;;;;;;6.70;3.77;;;;;;;;;;5032925;28;20036;-58
2023/09/13 09:06:09;;;;;;;6.47;3.47;;;;;;;;;;5032067;28;20041;-59
2023/09/13 09:08:37;;;;;;;7.93;3.53;;;;;;;;;;5031427;28;20288;-59
2023/09/13 09:11:02;;;;;;;7.68;3.22;;;;;;;;;;5016564;28;20498;-58
2023/09/13 09:13:28;;;;;;;5.47;2.97;;;;;;;;;;5031974;28;20052;-59
2023/09/13 09:15:53;;;;;;;7.30;3.50;;;;;;;;;;5030129;28;20108;-58
2023/09/13 09:18:19;;;;;;;6.47;3.03;;;;;;;;;;5034105;28;20045;-59
2023/09/13 09:20:44;;;;;;;6.97;3.00;;;;;;;;;;5030987;28;20303;-58
2023/09/13 09:23:10;;;;;;;7.68;3.38;;;;;;;;;;5011484;28;20055;-58
2023/09/13 09:25:37;;;;;;;5.28;3.00;;;;;;;;;;5032845;28;20044;-59
2023/09/13 09:28:04;;;;;;;7.97;3.60;;;;;;;;;;5035112;28;21560;-58
2023/09/13 09:30:31;;;;;;;6.95;3.28;;;;;;;;;;5029047;28;20033;-56
2023/09/13 09:33:01;;;;;;;6.43;3.00;;;;;;;;;;5017466;28;20037;-56
2023/09/13 09:35:26;;;;;;;5.80;3.00;;;;;;;;;;5030344;28;20045;-56
2023/09/13 09:37:51;;;;;;;5.75;3.15;;;;;;;;;;5030221;28;20106;-57
2023/09/13 09:40:16;;;;;;;6.70;3.17;;;;;;;;;;5029582;28;20369;-56
2023/09/13 09:42:41;;;;;;;6.63;3.37;;;;;;;;;;5030931;28;20314;-56
2023/09/13 09:45:07;;;;;;;5.40;2.90;;;;;;;;;;5031313;28;20342;-56
2023/09/13 09:47:41;;;;;;;7.25;3.03;;;;;;;;;;5029524;28;20294;-56
2023/09/13 09:50:10;;;;;;;5.32;3.10;;;;;;;;;;5030454;28;20453;-57
2023/09/13 09:52:35;;;;;;;6.88;3.80;;;;;;;;;;5031585;28;20057;-57
2023/09/13 09:55:02;;;;;;;5.93;2.85;;;;;;;;;;5030855;28;20063;-56
2023/09/13 09:57:28;;;;;;;6.40;3.08;;;;;;;;;;5031223;28;20041;-57
2023/09/13 09:59:53;;;;;;;6.43;3.40;;;;;;;;;;5030689;28;20087;-56
2023/09/13 10:02:24;;;;;;;7.03;3.00;;;;;;;;;;5033589;28;20032;-56
2023/09/13 10:04:51;;;;;;;5.95;3.25;;;;;;;;;;5031413;28;20048;-57
2023/09/13 10:07:16;;;;;;;6.50;3.20;;;;;;;;;;5027772;28;20037;-58
2023/09/13 10:09:42;;;;;;;5.07;2.83;;;;;;;;;;5030124;28;20407;-59
2023/09/13 10:12:09;;;;;;;5.93;3.30;;;;;;;;;;5027131;28;20452;-59
2023/09/13 10:14:34;;;;;;;4.63;2.75;;;;;;;;;;5031227;28;20025;-58
2023/09/13 10:17:00;;;;;;;6.53;3.33;;;;;;;;;;5033160;28;20048;-59
2023/09/13 10:19:27;;;;;;;6.10;2.95;;;;;;;;;;5028424;28;20310;-60
2023/09/13 10:21:52;;;;;;;6.78;3.22;;;;;;;;;;5033744;28;20041;-59
2023/09/13 10:24:18;;;;;;;7.10;3.17;;;;;;;;;;5029923;28;20052;-58
2023/09/13 10:26:43;;;;;;;6.37;3.03;;;;;;;;;;5017775;28;20049;-59
2023/09/13 10:29:12;;;;;;;7.53;3.10;;;;;;;;;;5029234;28;20291;-58
2023/09/13 10:31:39;;;;;;;7.43;3.45;;;;;;;;;;5015100;28;20044;-58
2023/09/13 10:34:06;;;;;;;6.28;3.60;;;;;;;;;;5010504;28;20801;-59
2023/09/13 10:36:32;;;;;;;5.95;3.10;;;;;;;;;;5017016;28;20080;-58
2023/09/13 10:39:18;;;;;;;6.13;3.58;;;;;;;;;;5030293;28;20209;-58
2023/09/13 10:41:49;;;;;;;5.30;3.05;;;;;;;;;;5028474;28;20041;-58
2023/09/13 10:44:14;;;;;;;5.80;3.08;;;;;;;;;;5028623;28;20676;-58
2023/09/13 10:46:39;;;;;;;5.00;3.00;;;;;;;;;;5032265;28;20033;-58
2023/09/13 10:49:04;;;;;;;7.77;3.00;;;;;;;;;;5029667;28;20425;-60
2023/09/13 10:51:30;;;;;;;5.63;2.97;;;;;;;;;;5031797;28;20280;-59
2023/09/13 10:53:55;;;;;;;5.95;3.03;;;;;;;;;;5033143;28;20294;-59
2023/09/13 10:56:20;;;;;;;7.27;3.10;;;;;;;;;;5036111;28;20479;-60
2023/09/13 10:58:46;;;;;;;4.03;2.72;;;;;;;;;;5033913;28;20397;-58
2023/09/13 11:01:12;;;;;;;6.30;3.43;;;;;;;;;;5033877;28;20052;-58
2023/09/13 11:03:37;;;;;;;4.75;2.85;;;;;;;;;;5035753;28;20347;-58
2023/09/13 11:06:02;;;;;;;6.80;3.27;;;;;;;;;;5034309;28;20049;-58
2023/09/13 11:08:31;;;;;;;5.60;2.83;;;;;;;;;;5032708;28;20365;-58
2023/09/13 11:11:05;;;;;;;5.85;2.85;;;;;;;;;;5032129;28;20291;-58
2023/09/13 11:13:31;;;;;;;5.75;2.80;;;;;;;;;;5035570;28;20030;-58
2023/09/13 11:16:01;;;;;;;4.68;2.80;;;;;;;;;;5033809;28;20038;-58
2023/09/13 11:18:26;;;;;;;4.60;2.80;;;;;;;;;;5031678;28;20034;-57
2023/09/13 11:20:52;;;;;;;5.00;2.80;;;;;;;;;;5032094;28;20040;-57
2023/09/13 11:23:18;;;;;;;5.95;3.00;;;;;;;;;;5032939;28;20334;-58
2023/09/13 11:25:49;;;;;;;5.40;3.08;;;;;;;;;;5035991;28;20041;-57
2023/09/13 11:28:33;;;;;;;5.40;2.80;;;;;;;;;;5032551;28;20037;-63
2023/09/13 11:30:59;;;;;;;5.28;2.88;;;;;;;;;;5033887;28;20037;-58
2023/09/13 11:33:28;;;;;;;7.63;3.15;;;;;;;;;;5032836;28;20551;-58
2023/09/13 11:35:53;;;;;;;5.35;2.58;;;;;;;;;;5032497;28;20024;-59
2023/09/13 11:38:18;;;;;;;6.72;2.85;;;;;;;;;;5033396;28;20021;-58
2023/09/13 11:40:47;;;;;;;5.55;2.92;;;;;;;;;;5029949;28;20025;-59
2023/09/13 11:43:12;;;;;;;7.15;2.90;;;;;;;;;;5031219;28;20048;-59
2023/09/13 11:45:39;;;;;;;7.57;2.50;;;;;;;;;;5030477;28;20540;-58
2023/09/13 11:48:04;;;;;;;5.32;2.63;;;;;;;;;;5030346;28;21304;-60
2023/09/13 11:50:42;;;;;;;5.13;2.50;;;;;;;;;;5014544;28;20043;-58
2023/09/13 11:53:19;;;;;;;4.30;2.63;;;;;;;;;;5030649;28;20466;-59
2023/09/13 11:55:45;;;;;;;5.78;3.00;;;;;;;;;;5033443;28;20037;-58
2023/09/13 11:58:19;;;;;;;5.30;2.78;;;;;;;;;;5033518;28;20044;-59
2023/09/13 12:00:44;;;;;;;5.88;2.80;;;;;;;;;;5029066;28;20076;-57
2023/09/13 12:03:10;;;;;;;3.73;2.33;;;;;;;;;;5034510;28;20538;-57
2023/09/13 12:05:35;;;;;;;5.85;2.80;;;;;;;;;;5027282;28;20295;-56
2023/09/13 12:08:01;;;;;;;5.63;2.72;;;;;;;;;;5031095;28;20063;-58
2023/09/13 12:10:30;;;;;;;5.82;2.78;;;;;;;;;;5031388;28;20131;-57
2023/09/13 12:12:55;;;;;;;6.07;2.63;;;;;;;;;;5031029;28;20110;-55
2023/09/13 12:15:24;;;;;;;5.47;2.80;;;;;;;;;;5031304;28;20052;-56
2023/09/13 12:17:50;;;;;;;6.10;2.83;;;;;;;;;;5029830;28;20871;-57
2023/09/13 12:20:15;;;;;;;6.13;3.20;;;;;;;;;;5030537;28;20042;-57
2023/09/13 12:22:40;;;;;;;5.23;2.40;;;;;;;;;;5033807;28;20826;-57
2023/09/13 12:25:12;;;;;;;9.00;2.53;;;;;;;;;;5030272;28;20516;-57
2023/09/13 12:27:37;;;;;;;4.90;2.70;;;;;;;;;;5031107;28;20043;-56
2023/09/13 12:30:07;;;;;;;5.47;2.90;;;;;;;;;;5034993;28;20032;-56
2023/09/13 12:32:32;;;;;;;5.80;2.70;;;;;;;;;;5030814;28;20595;-57
2023/09/13 12:34:57;;;;;;;6.07;2.30;;;;;;;;;;5034258;28;20025;-55
2023/09/13 12:37:22;;;;;;;7.03;2.63;;;;;;;;;;5028168;28;20037;-55
2023/09/13 12:39:48;;;;;;;4.10;2.53;;;;;;;;;;5030055;28;20064;-57
2023/09/13 12:42:14;;;;;;;5.53;2.30;;;;;;;;;;5030290;28;20041;-57
2023/09/13 12:44:40;;;;;;;5.25;2.67;;;;;;;;;;5029986;28;20314;-58
2023/09/13 12:47:05;;;;;;;4.45;2.47;;;;;;;;;;5029607;28;20044;-57
2023/09/13 12:49:31;;;;;;;4.97;2.50;;;;;;;;;;5033543;28;20040;-58
2023/09/13 12:51:56;;;;;;;7.72;2.72;;;;;;;;;;5030011;28;20116;-57
2023/09/13 12:54:21;;;;;;;6.78;2.67;;;;;;;;;;5030748;28;20049;-56
2023/09/13 12:56:46;;;;;;;6.40;2.63;;;;;;;;;;5029346;28;20135;-57
2023/09/13 12:59:12;;;;;;;4.53;2.40;;;;;;;;;;5028753;28;20732;-56
2023/09/13 13:01:37;;;;;;;6.40;2.67;;;;;;;;;;5030933;28;20505;-56
2023/09/13 13:04:02;;;;;;;5.30;2.63;;;;;;;;;;5030412;28;20466;-57
2023/09/13 13:06:28;;;;;;;6.32;2.75;;;;;;;;;;5029521;28;20485;-57
2023/09/13 13:09:00;;;;;;;5.35;2.63;;;;;;;;;;5030038;28;20152;-56
2023/09/13 13:11:26;;;;;;;6.00;3.00;;;;;;;;;;5033395;28;20074;-56
2023/09/13 13:13:51;;;;;;;6.33;2.83;;;;;;;;;;5033118;28;20043;-57
2023/09/13 13:16:19;;;;;;;7.13;3.10;;;;;;;;;;5028703;28;20767;-59
2023/09/13 13:18:44;;;;;;;8.68;3.15;;;;;;;;;;5029864;28;20041;-57
2023/09/13 13:21:12;;;;;;;4.70;2.43;;;;;;;;;;5028780;28;20056;-56
2023/09/13 13:23:42;;;;;;;6.53;2.65;;;;;;;;;;5028322;28;20705;-56
2023/09/13 13:26:07;;;;;;;5.80;2.78;;;;;;;;;;5029451;28;20026;-58
2023/09/13 13:28:32;;;;;;;5.43;3.33;;;;;;;;;;5027818;28;20678;-56
2023/09/13 13:30:58;;;;;;;5.67;3.10;;;;;;;;;;5027450;28;20425;-58
2023/09/13 13:33:23;;;;;;;5.38;2.88;;;;;;;;;;5030435;28;20207;-57
2023/09/13 13:35:49;;;;;;;6.17;2.60;;;;;;;;;;5030011;28;20033;-58
2023/09/13 13:38:15;;;;;;;7.53;2.92;;;;;;;;;;5030136;28;20080;-59
2023/09/13 13:40:40;;;;;;;8.27;3.47;;;;;;;;;;5031426;28;20806;-56
2023/09/13 13:43:05;;;;;;;8.48;3.05;;;;;;;;;;5025934;28;20487;-56
2023/09/13 13:45:30;;;;;;;7.90;3.37;;;;;;;;;;5028008;28;20048;-56
2023/09/13 13:47:56;;;;;;;8.17;3.37;;;;;;;;;;5028932;28;20072;-56
2023/09/13 13:50:21;;;;;;;8.17;3.63;;;;;;;;;;5029470;28;20295;-57
2023/09/13 13:52:46;;;;;;;8.57;3.47;;;;;;;;;;5029019;28;20878;-57
2023/09/13 13:55:11;;;;;;;8.68;4.10;;;;;;;;;;5027739;28;20381;-57
2023/09/13 13:57:41;;;;;;;8.53;3.90;;;;;;;;;;5029172;28;20516;-59
2023/09/13 14:00:07;;;;;;;8.88;4.38;;;;;;;;;;5028123;28;20037;-57
2023/09/13 14:02:36;;;;;;;7.30;4.07;;;;;;;;;;5025315;28;20044;-57
2023/09/13 14:05:03;;;;;;;8.50;3.75;;;;;;;;;;5027662;28;20681;-55
2023/09/13 14:07:29;;;;;;;7.85;3.72;;;;;;;;;;5032440;28;20073;-58
2023/09/13 14:09:54;;;;;;;8.38;3.78;;;;;;;;;;5030770;28;22166;-58
2023/09/13 14:12:19;;;;;;;6.77;3.53;;;;;;;;;;5027936;28;20441;-57
2023/09/13 14:14:44;;;;;;;11.80;3.60;;;;;;;;;;5027383;28;20480;-57
2023/09/13 14:17:10;;;;;;;7.53;3.57;;;;;;;;;;5028754;28;20043;-57
2023/09/13 14:19:35;;;;;;;7.23;3.23;;;;;;;;;;5027962;28;20041;-57
2023/09/13 14:22:00;;;;;;;7.20;3.47;;;;;;;;;;5028926;28;20403;-58
2023/09/13 14:24:25;;;;;;;7.47;3.15;;;;;;;;;;5027546;28;20331;-58
2023/09/13 14:26:51;;;;;;;7.53;3.35;;;;;;;;;;5029116;28;20041;-58
2023/09/13 14:29:16;;;;;;;5.07;3.10;;;;;;;;;;5029660;28;20230;-57
2023/09/13 14:31:42;;;;;;;6.32;3.05;;;;;;;;;;5029237;28;20299;-56
2023/09/13 14:34:08;;;;;;;7.00;3.00;;;;;;;;;;5028292;28;20040;-57
2023/09/13 14:36:33;;;;;;;5.97;3.15;;;;;;;;;;5028396;28;20131;-56